sensor_id;sensor_type;location;lat;lon;timestamp;temperature;humidity
30250;DHT22;17064;47.974;13.826;2022-09-03T00:00:51;10.40;99.90
30250;DHT22;17064;47.974;13.826;2022-09-03T00:06:14;10.40;99.90
30250;DHT22;17064;47.974;13.826;2022-09-03T00:11:42;10.40;99.90
30250;DHT22;17064;47.974;13.826;2022-09-03T00:17:16;10.40;99.90
30250;DHT22;17064;47.974;13.826;2022-09-03T00:22:39;10.30;99.90
30250;DHT22;17064;47.974;13.826;2022-09-03T00:28:01;10.30;99.90
30250;DHT22;17064;47.974;13.826;2022-09-03T00:33:25;10.20;99.90
30250;DHT22;17064;47.974;13.826;2022-09-03T00:38:47;10.10;99.90
30250;DHT22;17064;47.974;13.826;2022-09-03T01:00:17;10.10;99.90
30250;DHT22;17064;47.974;13.826;2022-09-03T01:16:53;10.00;99.90
30250;DHT22;17064;47.974;13.826;2022-09-03T01:33:37;9.80;99.90
30250;DHT22;17064;47.974;13.826;2022-09-03T01:39:03;9.80;99.90
30250;DHT22;17064;47.974;13.826;2022-09-03T01:44:38;9.70;99.90
30250;DHT22;17064;47.974;13.826;2022-09-03T01:50:10;9.70;99.90
30250;DHT22;17064;47.974;13.826;2022-09-03T01:55:55;9.70;99.90
30250;DHT22;17064;47.974;13.826;2022-09-03T02:01:34;9.70;99.90
30250;DHT22;17064;47.974;13.826;2022-09-03T02:06:58;9.70;99.90
30250;DHT22;17064;47.974;13.826;2022-09-03T02:12:20;9.60;99.90
30250;DHT22;17064;47.974;13.826;2022-09-03T02:17:41;9.50;99.90
30250;DHT22;17064;47.974;13.826;2022-09-03T02:23:03;9.50;99.90
30250;DHT22;17064;47.974;13.826;2022-09-03T02:28:24;9.50;99.90
30250;DHT22;17064;47.974;13.826;2022-09-03T02:33:46;9.50;99.90
30250;DHT22;17064;47.974;13.826;2022-09-03T02:39:07;9.50;99.90
30250;DHT22;17064;47.974;13.826;2022-09-03T02:44:29;9.40;99.90
30250;DHT22;17064;47.974;13.826;2022-09-03T02:49:51;9.30;99.90
30250;DHT22;17064;47.974;13.826;2022-09-03T02:55:12;9.30;99.90
30250;DHT22;17064;47.974;13.826;2022-09-03T03:00:33;9.30;99.90
30250;DHT22;17064;47.974;13.826;2022-09-03T03:05:56;9.30;99.90
30250;DHT22;17064;47.974;13.826;2022-09-03T03:11:18;9.20;99.90
30250;DHT22;17064;47.974;13.826;2022-09-03T03:16:39;9.20;99.90
30250;DHT22;17064;47.974;13.826;2022-09-03T03:22:00;9.20;99.90
30250;DHT22;17064;47.974;13.826;2022-09-03T03:27:21;9.20;99.90
30250;DHT22;17064;47.974;13.826;2022-09-03T03:32:42;9.20;99.90
30250;DHT22;17064;47.974;13.826;2022-09-03T03:38:03;9.10;99.90
30250;DHT22;17064;47.974;13.826;2022-09-03T03:43:24;9.10;99.90
30250;DHT22;17064;47.974;13.826;2022-09-03T03:48:48;9.10;99.90
30250;DHT22;17064;47.974;13.826;2022-09-03T03:54:09;9.10;99.90
30250;DHT22;17064;47.974;13.826;2022-09-03T03:59:30;9.10;99.90
30250;DHT22;17064;47.974;13.826;2022-09-03T04:04:51;9.10;99.90
30250;DHT22;17064;47.974;13.826;2022-09-03T04:10:12;9.10;99.90
30250;DHT22;17064;47.974;13.826;2022-09-03T04:15:35;9.10;99.90
30250;DHT22;17064;47.974;13.826;2022-09-03T04:21:03;9.00;99.90
30250;DHT22;17064;47.974;13.826;2022-09-03T04:26:25;9.00;99.90
30250;DHT22;17064;47.974;13.826;2022-09-03T04:31:47;9.00;99.90
30250;DHT22;17064;47.974;13.826;2022-09-03T04:37:27;8.90;99.90
30250;DHT22;17064;47.974;13.826;2022-09-03T04:42:48;8.90;99.90
30250;DHT22;17064;47.974;13.826;2022-09-03T04:48:09;8.90;99.90
30250;DHT22;17064;47.974;13.826;2022-09-03T04:53:41;9.00;99.90
30250;DHT22;17064;47.974;13.826;2022-09-03T04:59:03;9.00;99.90
30250;DHT22;17064;47.974;13.826;2022-09-03T05:04:24;9.10;99.90
30250;DHT22;17064;47.974;13.826;2022-09-03T05:09:45;9.30;99.90
30250;DHT22;17064;47.974;13.826;2022-09-03T05:15:06;9.50;99.90
30250;DHT22;17064;47.974;13.826;2022-09-03T05:20:28;9.70;99.90
30250;DHT22;17064;47.974;13.826;2022-09-03T05:25:56;9.80;99.90
30250;DHT22;17064;47.974;13.826;2022-09-03T05:31:18;10.00;99.90
30250;DHT22;17064;47.974;13.826;2022-09-03T05:36:39;10.10;99.90
30250;DHT22;17064;47.974;13.826;2022-09-03T05:42:00;10.30;99.90
30250;DHT22;17064;47.974;13.826;2022-09-03T05:47:21;10.50;99.90
30250;DHT22;17064;47.974;13.826;2022-09-03T05:52:42;10.70;99.90
30250;DHT22;17064;47.974;13.826;2022-09-03T05:58:03;10.90;99.90
30250;DHT22;17064;47.974;13.826;2022-09-03T06:03:24;11.20;99.90
30250;DHT22;17064;47.974;13.826;2022-09-03T06:08:45;11.50;99.90
30250;DHT22;17064;47.974;13.826;2022-09-03T06:14:09;11.70;99.90
30250;DHT22;17064;47.974;13.826;2022-09-03T06:19:30;11.90;99.90
30250;DHT22;17064;47.974;13.826;2022-09-03T06:24:51;12.10;99.90
30250;DHT22;17064;47.974;13.826;2022-09-03T06:30:12;12.10;99.90
30250;DHT22;17064;47.974;13.826;2022-09-03T06:35:33;12.20;99.90
30250;DHT22;17064;47.974;13.826;2022-09-03T06:40:55;12.30;99.90
30250;DHT22;17064;47.974;13.826;2022-09-03T06:46:17;12.30;99.90
30250;DHT22;17064;47.974;13.826;2022-09-03T06:51:39;12.50;99.90
30250;DHT22;17064;47.974;13.826;2022-09-03T06:57:00;12.50;99.90
30250;DHT22;17064;47.974;13.826;2022-09-03T07:02:21;12.50;99.90
30250;DHT22;17064;47.974;13.826;2022-09-03T07:07:42;12.40;99.90
30250;DHT22;17064;47.974;13.826;2022-09-03T07:13:05;12.50;99.90
30250;DHT22;17064;47.974;13.826;2022-09-03T07:18:26;12.70;99.90
30250;DHT22;17064;47.974;13.826;2022-09-03T07:23:48;13.10;99.90
30250;DHT22;17064;47.974;13.826;2022-09-03T07:29:09;13.50;99.90
30250;DHT22;17064;47.974;13.826;2022-09-03T07:34:31;13.80;99.90
30250;DHT22;17064;47.974;13.826;2022-09-03T07:39:54;13.90;99.90
30250;DHT22;17064;47.974;13.826;2022-09-03T07:45:15;14.30;99.90
30250;DHT22;17064;47.974;13.826;2022-09-03T07:50:36;14.60;99.90
30250;DHT22;17064;47.974;13.826;2022-09-03T07:56:03;15.00;99.90
30250;DHT22;17064;47.974;13.826;2022-09-03T08:01:25;15.30;99.90
30250;DHT22;17064;47.974;13.826;2022-09-03T08:06:48;15.70;99.90
30250;DHT22;17064;47.974;13.826;2022-09-03T08:12:09;16.20;99.90
30250;DHT22;17064;47.974;13.826;2022-09-03T08:17:30;16.80;99.90
30250;DHT22;17064;47.974;13.826;2022-09-03T08:22:51;17.20;99.90
30250;DHT22;17064;47.974;13.826;2022-09-03T08:28:11;17.30;99.90
30250;DHT22;17064;47.974;13.826;2022-09-03T08:33:32;17.40;99.90
30250;DHT22;17064;47.974;13.826;2022-09-03T08:39:03;17.60;99.90
30250;DHT22;17064;47.974;13.826;2022-09-03T08:50:07;18.30;99.90
30250;DHT22;17064;47.974;13.826;2022-09-03T09:01:25;18.60;99.90
30250;DHT22;17064;47.974;13.826;2022-09-03T09:12:33;19.00;99.90
30250;DHT22;17064;47.974;13.826;2022-09-03T09:23:39;19.40;99.90
30250;DHT22;17064;47.974;13.826;2022-09-03T09:29:05;19.70;99.90
30250;DHT22;17064;47.974;13.826;2022-09-03T09:34:27;20.00;99.90
30250;DHT22;17064;47.974;13.826;2022-09-03T09:39:57;20.20;99.90
30250;DHT22;17064;47.974;13.826;2022-09-03T09:45:19;20.50;99.90
30250;DHT22;17064;47.974;13.826;2022-09-03T09:50:42;20.70;99.90
30250;DHT22;17064;47.974;13.826;2022-09-03T09:56:03;20.60;99.90
30250;DHT22;17064;47.974;13.826;2022-09-03T10:01:24;20.80;99.90
30250;DHT22;17064;47.974;13.826;2022-09-03T10:06:53;21.00;99.90
30250;DHT22;17064;47.974;13.826;2022-09-03T10:12:58;21.10;99.90
30250;DHT22;17064;47.974;13.826;2022-09-03T10:23:24;21.40;99.90
30250;DHT22;17064;47.974;13.826;2022-09-03T10:28:49;21.50;99.90
30250;DHT22;17064;47.974;13.826;2022-09-03T10:50:27;21.30;99.90
30250;DHT22;17064;47.974;13.826;2022-09-03T10:55:58;21.60;99.90
30250;DHT22;17064;47.974;13.826;2022-09-03T11:07:04;22.30;99.90
30250;DHT22;17064;47.974;13.826;2022-09-03T11:12:30;22.60;99.90
30250;DHT22;17064;47.974;13.826;2022-09-03T11:17:57;22.90;99.90
30250;DHT22;17064;47.974;13.826;2022-09-03T11:23:23;23.20;99.70
30250;DHT22;17064;47.974;13.826;2022-09-03T11:34:07;23.50;96.90
30250;DHT22;17064;47.974;13.826;2022-09-03T11:44:52;23.70;94.30
30250;DHT22;17064;47.974;13.826;2022-09-03T11:50:23;23.60;94.40
30250;DHT22;17064;47.974;13.826;2022-09-03T12:01:17;23.50;94.30
30250;DHT22;17064;47.974;13.826;2022-09-03T12:06:53;23.80;93.20
30250;DHT22;17064;47.974;13.826;2022-09-03T12:17:56;24.20;93.60
30250;DHT22;17064;47.974;13.826;2022-09-03T12:23:44;24.30;93.50
30250;DHT22;17064;47.974;13.826;2022-09-03T12:29:05;24.20;91.20
30250;DHT22;17064;47.974;13.826;2022-09-03T12:34:26;24.00;90.70
30250;DHT22;17064;47.974;13.826;2022-09-03T12:39:54;23.70;94.60
30250;DHT22;17064;47.974;13.826;2022-09-03T12:45:19;23.70;95.70
30250;DHT22;17064;47.974;13.826;2022-09-03T12:50:41;23.80;95.50
30250;DHT22;17064;47.974;13.826;2022-09-03T12:56:02;24.00;93.80
30250;DHT22;17064;47.974;13.826;2022-09-03T13:01:25;24.00;91.50
30250;DHT22;17064;47.974;13.826;2022-09-03T13:06:52;23.60;93.40
30250;DHT22;17064;47.974;13.826;2022-09-03T13:12:19;23.30;96.70
30250;DHT22;17064;47.974;13.826;2022-09-03T13:34:04;24.50;92.70
30250;DHT22;17064;47.974;13.826;2022-09-03T13:39:27;25.00;91.60
30250;DHT22;17064;47.974;13.826;2022-09-03T13:44:51;25.80;90.70
30250;DHT22;17064;47.974;13.826;2022-09-03T13:50:18;26.50;84.80
30250;DHT22;17064;47.974;13.826;2022-09-03T13:55:59;26.50;79.10
30250;DHT22;17064;47.974;13.826;2022-09-03T14:01:25;26.60;72.10
30250;DHT22;17064;47.974;13.826;2022-09-03T14:07:00;27.10;67.80
30250;DHT22;17064;47.974;13.826;2022-09-03T14:23:22;27.80;63.00
30250;DHT22;17064;47.974;13.826;2022-09-03T14:28:47;27.00;61.30
30250;DHT22;17064;47.974;13.826;2022-09-03T14:39:33;25.10;67.60
30250;DHT22;17064;47.974;13.826;2022-09-03T15:01:39;22.80;96.10
30250;DHT22;17064;47.974;13.826;2022-09-03T15:07:20;22.60;99.10
30250;DHT22;17064;47.974;13.826;2022-09-03T15:12:51;22.40;99.90
30250;DHT22;17064;47.974;13.826;2022-09-03T15:40:35;22.00;99.90
30250;DHT22;17064;47.974;13.826;2022-09-03T15:46:08;21.90;99.90
30250;DHT22;17064;47.974;13.826;2022-09-03T15:51:40;21.90;99.90
30250;DHT22;17064;47.974;13.826;2022-09-03T15:57:08;21.90;99.90
30250;DHT22;17064;47.974;13.826;2022-09-03T16:02:32;21.80;99.90
30250;DHT22;17064;47.974;13.826;2022-09-03T16:08:09;21.70;99.90
30250;DHT22;17064;47.974;13.826;2022-09-03T16:13:44;21.60;99.90
30250;DHT22;17064;47.974;13.826;2022-09-03T16:24:51;21.40;99.90
30250;DHT22;17064;47.974;13.826;2022-09-03T16:30:20;21.20;99.90
30250;DHT22;17064;47.974;13.826;2022-09-03T16:35:44;21.00;99.90
30250;DHT22;17064;47.974;13.826;2022-09-03T16:46:55;20.60;99.90
30250;DHT22;17064;47.974;13.826;2022-09-03T17:25:27;19.40;99.90
30250;DHT22;17064;47.974;13.826;2022-09-03T17:30:58;19.30;99.90
30250;DHT22;17064;47.974;13.826;2022-09-03T17:36:26;19.20;99.90
30250;DHT22;17064;47.974;13.826;2022-09-03T17:41:51;19.10;99.90
30250;DHT22;17064;47.974;13.826;2022-09-03T17:52:38;19.00;99.90
30250;DHT22;17064;47.974;13.826;2022-09-03T18:09:07;18.80;99.90
30250;DHT22;17064;47.974;13.826;2022-09-03T18:14:34;18.70;99.90
30250;DHT22;17064;47.974;13.826;2022-09-03T18:20:07;18.40;99.90
30250;DHT22;17064;47.974;13.826;2022-09-03T18:25:49;18.10;99.90
30250;DHT22;17064;47.974;13.826;2022-09-03T18:31:29;17.70;99.90
30250;DHT22;17064;47.974;13.826;2022-09-03T18:37:08;17.40;99.90
30250;DHT22;17064;47.974;13.826;2022-09-03T18:54:29;16.80;99.90
30250;DHT22;17064;47.974;13.826;2022-09-03T19:00:13;16.70;99.90
30250;DHT22;17064;47.974;13.826;2022-09-03T19:23:13;16.30;99.90
30250;DHT22;17064;47.974;13.826;2022-09-03T19:28:53;16.30;99.90
30250;DHT22;17064;47.974;13.826;2022-09-03T19:46:18;16.10;99.90
30250;DHT22;17064;47.974;13.826;2022-09-03T19:52:16;16.00;99.90
30250;DHT22;17064;47.974;13.826;2022-09-03T19:57:59;15.90;99.90
30250;DHT22;17064;47.974;13.826;2022-09-03T20:03:39;15.80;99.90
30250;DHT22;17064;47.974;13.826;2022-09-03T20:09:19;15.70;99.90
30250;DHT22;17064;47.974;13.826;2022-09-03T20:15:04;15.60;99.90
30250;DHT22;17064;47.974;13.826;2022-09-03T20:20:30;15.40;99.90
30250;DHT22;17064;47.974;13.826;2022-09-03T20:31:37;15.10;99.90
30250;DHT22;17064;47.974;13.826;2022-09-03T20:59:07;15.20;99.90
30250;DHT22;17064;47.974;13.826;2022-09-03T21:26:54;15.00;99.90
30250;DHT22;17064;47.974;13.826;2022-09-03T21:32:17;15.00;99.90
30250;DHT22;17064;47.974;13.826;2022-09-03T21:37:40;14.90;99.90
30250;DHT22;17064;47.974;13.826;2022-09-03T21:43:15;14.80;99.90
30250;DHT22;17064;47.974;13.826;2022-09-03T21:48:42;14.80;99.90
30250;DHT22;17064;47.974;13.826;2022-09-03T22:05:06;14.70;99.90
30250;DHT22;17064;47.974;13.826;2022-09-03T22:15:49;14.50;99.90
30250;DHT22;17064;47.974;13.826;2022-09-03T22:21:13;14.50;99.90
30250;DHT22;17064;47.974;13.826;2022-09-03T22:26:42;14.40;99.90
30250;DHT22;17064;47.974;13.826;2022-09-03T22:59:48;14.20;99.90
30250;DHT22;17064;47.974;13.826;2022-09-03T23:11:03;14.10;99.90
30250;DHT22;17064;47.974;13.826;2022-09-03T23:22:08;14.00;99.90
30250;DHT22;17064;47.974;13.826;2022-09-03T23:27:33;14.00;99.90
30250;DHT22;17064;47.974;13.826;2022-09-03T23:32:56;13.90;99.90
30250;DHT22;17064;47.974;13.826;2022-09-03T23:49:18;13.80;99.90
30250;DHT22;17064;47.974;13.826;2022-09-03T23:54:48;13.70;99.90
